sensor_id;sensor_type;location;lat;lon;timestamp;temperature;humidity
65584;DHT22;70321;43.592;1.456;2023-07-31T00:00:08;21.75;65.82
65584;DHT22;70321;43.592;1.456;2023-07-31T00:02:37;21.76;66.04
65584;DHT22;70321;43.592;1.456;2023-07-31T00:05:05;21.73;66.20
65584;DHT22;70321;43.592;1.456;2023-07-31T00:07:32;21.72;66.42
65584;DHT22;70321;43.592;1.456;2023-07-31T00:09:58;21.73;65.81
65584;DHT22;70321;43.592;1.456;2023-07-31T00:12:25;21.72;65.59
65584;DHT22;70321;43.592;1.456;2023-07-31T00:14:52;21.70;66.17
65584;DHT22;70321;43.592;1.456;2023-07-31T00:17:19;21.67;66.16
65584;DHT22;70321;43.592;1.456;2023-07-31T00:19:45;21.70;65.96
65584;DHT22;70321;43.592;1.456;2023-07-31T00:22:12;21.73;65.97
65584;DHT22;70321;43.592;1.456;2023-07-31T00:24:39;21.82;66.72
65584;DHT22;70321;43.592;1.456;2023-07-31T00:27:06;21.82;67.40
65584;DHT22;70321;43.592;1.456;2023-07-31T00:29:32;21.79;68.50
65584;DHT22;70321;43.592;1.456;2023-07-31T00:31:59;21.75;68.93
65584;DHT22;70321;43.592;1.456;2023-07-31T00:34:26;21.66;69.18
65584;DHT22;70321;43.592;1.456;2023-07-31T00:36:53;21.58;69.35
65584;DHT22;70321;43.592;1.456;2023-07-31T00:39:19;21.55;69.87
65584;DHT22;70321;43.592;1.456;2023-07-31T00:41:46;21.50;70.28
65584;DHT22;70321;43.592;1.456;2023-07-31T00:44:13;21.50;70.80
65584;DHT22;70321;43.592;1.456;2023-07-31T00:46:40;21.55;70.68
65584;DHT22;70321;43.592;1.456;2023-07-31T00:49:07;21.49;71.19
65584;DHT22;70321;43.592;1.456;2023-07-31T00:51:34;21.46;72.00
65584;DHT22;70321;43.592;1.456;2023-07-31T00:54:01;21.42;72.25
65584;DHT22;70321;43.592;1.456;2023-07-31T00:56:29;21.43;72.21
65584;DHT22;70321;43.592;1.456;2023-07-31T00:58:56;21.43;72.53
65584;DHT22;70321;43.592;1.456;2023-07-31T01:01:23;21.42;72.54
65584;DHT22;70321;43.592;1.456;2023-07-31T01:03:51;21.36;72.54
65584;DHT22;70321;43.592;1.456;2023-07-31T01:06:43;21.38;72.03
65584;DHT22;70321;43.592;1.456;2023-07-31T01:12:03;21.25;72.30
65584;DHT22;70321;43.592;1.456;2023-07-31T01:14:30;21.21;72.30
65584;DHT22;70321;43.592;1.456;2023-07-31T01:16:57;21.16;72.60
65584;DHT22;70321;43.592;1.456;2023-07-31T01:19:26;21.15;72.11
65584;DHT22;70321;43.592;1.456;2023-07-31T01:27:10;21.05;72.68
65584;DHT22;70321;43.592;1.456;2023-07-31T01:32:13;20.95;72.39
65584;DHT22;70321;43.592;1.456;2023-07-31T01:34:41;20.92;72.69
65584;DHT22;70321;43.592;1.456;2023-07-31T01:37:08;20.92;72.99
65584;DHT22;70321;43.592;1.456;2023-07-31T01:39:35;20.92;73.14
65584;DHT22;70321;43.592;1.456;2023-07-31T01:42:01;20.95;73.21
65584;DHT22;70321;43.592;1.456;2023-07-31T01:44:28;20.95;73.06
65584;DHT22;70321;43.592;1.456;2023-07-31T01:46:55;20.92;72.56
65584;DHT22;70321;43.592;1.456;2023-07-31T01:49:21;20.90;72.44
65584;DHT22;70321;43.592;1.456;2023-07-31T01:51:48;20.88;72.56
65584;DHT22;70321;43.592;1.456;2023-07-31T01:54:15;20.85;72.31
65584;DHT22;70321;43.592;1.456;2023-07-31T01:56:41;20.85;72.25
65584;DHT22;70321;43.592;1.456;2023-07-31T01:59:08;20.80;72.38
65584;DHT22;70321;43.592;1.456;2023-07-31T02:01:35;20.78;72.13
65584;DHT22;70321;43.592;1.456;2023-07-31T02:04:02;20.77;72.44
65584;DHT22;70321;43.592;1.456;2023-07-31T02:06:31;20.75;72.48
65584;DHT22;70321;43.592;1.456;2023-07-31T02:08:58;20.75;72.37
65584;DHT22;70321;43.592;1.456;2023-07-31T02:11:24;20.70;71.84
65584;DHT22;70321;43.592;1.456;2023-07-31T02:13:51;20.64;72.02
65584;DHT22;70321;43.592;1.456;2023-07-31T02:16:17;20.60;72.01
65584;DHT22;70321;43.592;1.456;2023-07-31T02:18:44;20.57;72.24
65584;DHT22;70321;43.592;1.456;2023-07-31T02:21:11;20.53;72.16
65584;DHT22;70321;43.592;1.456;2023-07-31T02:23:37;20.51;72.00
65584;DHT22;70321;43.592;1.456;2023-07-31T02:26:04;20.45;72.26
65584;DHT22;70321;43.592;1.456;2023-07-31T02:28:31;20.48;72.04
65584;DHT22;70321;43.592;1.456;2023-07-31T02:30:57;20.47;72.09
65584;DHT22;70321;43.592;1.456;2023-07-31T02:33:24;20.48;72.13
65584;DHT22;70321;43.592;1.456;2023-07-31T02:35:51;20.47;72.09
65584;DHT22;70321;43.592;1.456;2023-07-31T02:38:18;20.43;71.75
65584;DHT22;70321;43.592;1.456;2023-07-31T02:40:45;20.34;71.64
65584;DHT22;70321;43.592;1.456;2023-07-31T02:43:12;20.29;72.03
65584;DHT22;70321;43.592;1.456;2023-07-31T02:45:38;20.24;72.20
65584;DHT22;70321;43.592;1.456;2023-07-31T02:48:05;20.21;72.14
65584;DHT22;70321;43.592;1.456;2023-07-31T02:50:32;20.19;72.28
65584;DHT22;70321;43.592;1.456;2023-07-31T02:52:59;20.17;72.46
65584;DHT22;70321;43.592;1.456;2023-07-31T02:55:26;20.19;72.54
65584;DHT22;70321;43.592;1.456;2023-07-31T02:57:52;20.17;72.65
65584;DHT22;70321;43.592;1.456;2023-07-31T03:00:20;20.13;72.66
65584;DHT22;70321;43.592;1.456;2023-07-31T03:02:47;20.13;72.58
65584;DHT22;70321;43.592;1.456;2023-07-31T03:05:14;20.17;72.16
65584;DHT22;70321;43.592;1.456;2023-07-31T03:07:40;20.14;72.54
65584;DHT22;70321;43.592;1.456;2023-07-31T03:10:07;20.13;72.76
65584;DHT22;70321;43.592;1.456;2023-07-31T03:12:34;20.13;72.78
65584;DHT22;70321;43.592;1.456;2023-07-31T03:15:01;20.17;72.53
65584;DHT22;70321;43.592;1.456;2023-07-31T03:17:28;20.16;72.59
65584;DHT22;70321;43.592;1.456;2023-07-31T03:19:54;20.10;72.54
65584;DHT22;70321;43.592;1.456;2023-07-31T03:22:21;20.09;72.57
65584;DHT22;70321;43.592;1.456;2023-07-31T03:24:48;20.10;72.48
65584;DHT22;70321;43.592;1.456;2023-07-31T03:27:14;20.03;72.66
65584;DHT22;70321;43.592;1.456;2023-07-31T03:29:41;20.01;72.44
65584;DHT22;70321;43.592;1.456;2023-07-31T03:32:08;19.99;72.23
65584;DHT22;70321;43.592;1.456;2023-07-31T03:34:35;19.97;72.73
65584;DHT22;70321;43.592;1.456;2023-07-31T03:37:01;19.96;72.48
65584;DHT22;70321;43.592;1.456;2023-07-31T03:39:28;19.93;72.41
65584;DHT22;70321;43.592;1.456;2023-07-31T03:41:55;19.92;72.69
65584;DHT22;70321;43.592;1.456;2023-07-31T03:44:21;19.92;72.62
65584;DHT22;70321;43.592;1.456;2023-07-31T03:46:48;19.89;72.97
65584;DHT22;70321;43.592;1.456;2023-07-31T03:49:15;19.85;72.77
65584;DHT22;70321;43.592;1.456;2023-07-31T03:51:41;19.82;72.92
65584;DHT22;70321;43.592;1.456;2023-07-31T03:54:08;19.82;72.98
65584;DHT22;70321;43.592;1.456;2023-07-31T03:56:35;19.82;73.24
65584;DHT22;70321;43.592;1.456;2023-07-31T03:59:04;19.77;72.76
65584;DHT22;70321;43.592;1.456;2023-07-31T04:01:31;19.76;72.75
65584;DHT22;70321;43.592;1.456;2023-07-31T04:03:58;19.73;73.06
65584;DHT22;70321;43.592;1.456;2023-07-31T04:06:24;19.69;72.70
65584;DHT22;70321;43.592;1.456;2023-07-31T04:08:51;19.69;73.40
65584;DHT22;70321;43.592;1.456;2023-07-31T04:11:17;19.65;72.74
65584;DHT22;70321;43.592;1.456;2023-07-31T04:13:44;19.62;72.54
65584;DHT22;70321;43.592;1.456;2023-07-31T04:16:11;19.61;72.62
65584;DHT22;70321;43.592;1.456;2023-07-31T04:18:38;19.54;72.46
65584;DHT22;70321;43.592;1.456;2023-07-31T04:21:04;19.51;72.48
65584;DHT22;70321;43.592;1.456;2023-07-31T04:23:31;19.51;72.76
65584;DHT22;70321;43.592;1.456;2023-07-31T04:25:58;19.45;72.40
65584;DHT22;70321;43.592;1.456;2023-07-31T04:28:25;19.41;72.15
65584;DHT22;70321;43.592;1.456;2023-07-31T04:30:52;19.38;72.11
65584;DHT22;70321;43.592;1.456;2023-07-31T04:33:20;19.36;72.66
65584;DHT22;70321;43.592;1.456;2023-07-31T04:35:54;19.35;72.67
65584;DHT22;70321;43.592;1.456;2023-07-31T04:38:21;19.31;72.76
65584;DHT22;70321;43.592;1.456;2023-07-31T04:40:48;19.28;72.46
65584;DHT22;70321;43.592;1.456;2023-07-31T04:43:15;19.24;71.94
65584;DHT22;70321;43.592;1.456;2023-07-31T04:45:45;19.19;72.07
65584;DHT22;70321;43.592;1.456;2023-07-31T04:48:13;19.16;72.04
65584;DHT22;70321;43.592;1.456;2023-07-31T04:50:40;19.15;72.00
65584;DHT22;70321;43.592;1.456;2023-07-31T04:53:07;19.14;72.26
65584;DHT22;70321;43.592;1.456;2023-07-31T04:55:34;19.11;71.81
65584;DHT22;70321;43.592;1.456;2023-07-31T04:58:00;19.10;71.43
65584;DHT22;70321;43.592;1.456;2023-07-31T05:00:27;19.08;71.94
65584;DHT22;70321;43.592;1.456;2023-07-31T05:02:54;19.10;71.96
65584;DHT22;70321;43.592;1.456;2023-07-31T05:05:20;19.08;71.66
65584;DHT22;70321;43.592;1.456;2023-07-31T05:07:47;19.07;71.69
65584;DHT22;70321;43.592;1.456;2023-07-31T05:10:14;19.04;71.87
65584;DHT22;70321;43.592;1.456;2023-07-31T05:12:41;19.04;72.02
65584;DHT22;70321;43.592;1.456;2023-07-31T05:15:08;19.07;72.28
65584;DHT22;70321;43.592;1.456;2023-07-31T05:17:35;19.08;71.72
65584;DHT22;70321;43.592;1.456;2023-07-31T05:20:01;19.05;71.70
65584;DHT22;70321;43.592;1.456;2023-07-31T05:22:28;19.04;71.89
65584;DHT22;70321;43.592;1.456;2023-07-31T05:24:55;19.05;71.96
65584;DHT22;70321;43.592;1.456;2023-07-31T05:27:22;19.05;71.81
65584;DHT22;70321;43.592;1.456;2023-07-31T05:29:48;19.00;71.40
65584;DHT22;70321;43.592;1.456;2023-07-31T05:32:15;18.98;71.83
65584;DHT22;70321;43.592;1.456;2023-07-31T05:34:42;18.97;71.80
65584;DHT22;70321;43.592;1.456;2023-07-31T05:37:10;19.00;71.85
65584;DHT22;70321;43.592;1.456;2023-07-31T05:39:37;18.98;71.86
65584;DHT22;70321;43.592;1.456;2023-07-31T05:42:04;18.98;71.49
65584;DHT22;70321;43.592;1.456;2023-07-31T05:44:31;19.02;71.67
65584;DHT22;70321;43.592;1.456;2023-07-31T05:46:58;19.02;71.66
65584;DHT22;70321;43.592;1.456;2023-07-31T05:49:24;19.07;71.37
65584;DHT22;70321;43.592;1.456;2023-07-31T05:51:51;19.04;71.35
65584;DHT22;70321;43.592;1.456;2023-07-31T05:54:18;19.05;71.53
65584;DHT22;70321;43.592;1.456;2023-07-31T05:56:45;19.04;71.13
65584;DHT22;70321;43.592;1.456;2023-07-31T05:59:12;19.07;71.51
65584;DHT22;70321;43.592;1.456;2023-07-31T06:01:39;19.14;71.64
65584;DHT22;70321;43.592;1.456;2023-07-31T06:04:06;19.18;71.03
65584;DHT22;70321;43.592;1.456;2023-07-31T06:06:32;19.18;70.41
65584;DHT22;70321;43.592;1.456;2023-07-31T06:08:59;19.15;70.54
65584;DHT22;70321;43.592;1.456;2023-07-31T06:11:26;19.15;70.46
65584;DHT22;70321;43.592;1.456;2023-07-31T06:13:52;19.15;71.01
65584;DHT22;70321;43.592;1.456;2023-07-31T06:16:19;19.21;70.84
65584;DHT22;70321;43.592;1.456;2023-07-31T06:18:48;19.26;70.73
65584;DHT22;70321;43.592;1.456;2023-07-31T06:21:14;19.28;69.69
65584;DHT22;70321;43.592;1.456;2023-07-31T06:23:41;19.31;70.15
65584;DHT22;70321;43.592;1.456;2023-07-31T06:26:08;19.29;70.08
65584;DHT22;70321;43.592;1.456;2023-07-31T06:28:34;19.31;70.14
65584;DHT22;70321;43.592;1.456;2023-07-31T06:31:01;19.31;70.01
65584;DHT22;70321;43.592;1.456;2023-07-31T06:33:28;19.36;70.41
65584;DHT22;70321;43.592;1.456;2023-07-31T06:35:55;19.44;70.65
65584;DHT22;70321;43.592;1.456;2023-07-31T06:38:24;19.46;70.00
65584;DHT22;70321;43.592;1.456;2023-07-31T06:40:51;19.54;70.34
65584;DHT22;70321;43.592;1.456;2023-07-31T06:43:17;19.55;70.03
65584;DHT22;70321;43.592;1.456;2023-07-31T06:45:44;19.58;70.05
65584;DHT22;70321;43.592;1.456;2023-07-31T06:48:12;19.56;69.11
65584;DHT22;70321;43.592;1.456;2023-07-31T06:50:39;19.56;68.97
65584;DHT22;70321;43.592;1.456;2023-07-31T06:53:05;19.58;69.51
65584;DHT22;70321;43.592;1.456;2023-07-31T06:55:33;19.63;69.71
65584;DHT22;70321;43.592;1.456;2023-07-31T06:57:59;19.66;69.50
65584;DHT22;70321;43.592;1.456;2023-07-31T07:00:27;19.70;69.37
65584;DHT22;70321;43.592;1.456;2023-07-31T07:02:54;19.76;69.36
65584;DHT22;70321;43.592;1.456;2023-07-31T07:05:20;19.80;69.55
65584;DHT22;70321;43.592;1.456;2023-07-31T07:07:49;19.86;69.62
65584;DHT22;70321;43.592;1.456;2023-07-31T07:10:16;19.90;69.39
65584;DHT22;70321;43.592;1.456;2023-07-31T07:12:43;19.94;70.38
65584;DHT22;70321;43.592;1.456;2023-07-31T07:15:10;20.00;69.51
65584;DHT22;70321;43.592;1.456;2023-07-31T07:17:36;20.05;69.31
65584;DHT22;70321;43.592;1.456;2023-07-31T07:20:04;20.12;69.35
65584;DHT22;70321;43.592;1.456;2023-07-31T07:22:31;20.10;67.89
65584;DHT22;70321;43.592;1.456;2023-07-31T07:24:57;20.12;68.08
65584;DHT22;70321;43.592;1.456;2023-07-31T07:27:24;20.12;68.31
65584;DHT22;70321;43.592;1.456;2023-07-31T07:29:51;20.09;67.89
65584;DHT22;70321;43.592;1.456;2023-07-31T07:32:20;20.16;68.19
65584;DHT22;70321;43.592;1.456;2023-07-31T07:34:48;20.13;67.75
65584;DHT22;70321;43.592;1.456;2023-07-31T07:37:14;20.20;67.56
65584;DHT22;70321;43.592;1.456;2023-07-31T07:39:41;20.24;67.89
65584;DHT22;70321;43.592;1.456;2023-07-31T07:42:08;20.29;67.93
65584;DHT22;70321;43.592;1.456;2023-07-31T07:44:34;20.34;68.73
65584;DHT22;70321;43.592;1.456;2023-07-31T07:47:01;20.39;68.39
65584;DHT22;70321;43.592;1.456;2023-07-31T07:49:28;20.41;67.08
65584;DHT22;70321;43.592;1.456;2023-07-31T07:51:55;20.41;66.47
65584;DHT22;70321;43.592;1.456;2023-07-31T07:54:22;20.41;66.65
65584;DHT22;70321;43.592;1.456;2023-07-31T07:56:48;20.43;67.01
65584;DHT22;70321;43.592;1.456;2023-07-31T07:59:16;20.47;66.34
65584;DHT22;70321;43.592;1.456;2023-07-31T08:01:42;20.51;66.59
65584;DHT22;70321;43.592;1.456;2023-07-31T08:04:09;20.55;66.24
65584;DHT22;70321;43.592;1.456;2023-07-31T08:06:36;20.58;66.60
65584;DHT22;70321;43.592;1.456;2023-07-31T08:09:03;20.63;66.43
65584;DHT22;70321;43.592;1.456;2023-07-31T08:11:33;20.65;65.65
65584;DHT22;70321;43.592;1.456;2023-07-31T08:14:00;20.65;66.38
65584;DHT22;70321;43.592;1.456;2023-07-31T08:16:27;20.71;66.26
65584;DHT22;70321;43.592;1.456;2023-07-31T08:18:54;20.74;65.79
65584;DHT22;70321;43.592;1.456;2023-07-31T08:21:21;20.81;66.54
65584;DHT22;70321;43.592;1.456;2023-07-31T08:23:48;20.88;66.21
65584;DHT22;70321;43.592;1.456;2023-07-31T08:26:16;20.92;64.91
65584;DHT22;70321;43.592;1.456;2023-07-31T08:28:42;20.96;64.87
65584;DHT22;70321;43.592;1.456;2023-07-31T08:31:09;21.01;64.41
65584;DHT22;70321;43.592;1.456;2023-07-31T08:33:38;21.04;64.14
65584;DHT22;70321;43.592;1.456;2023-07-31T08:36:05;21.09;65.54
65584;DHT22;70321;43.592;1.456;2023-07-31T08:38:32;21.14;65.72
65584;DHT22;70321;43.592;1.456;2023-07-31T08:40:59;21.14;64.10
65584;DHT22;70321;43.592;1.456;2023-07-31T08:43:26;21.22;64.37
65584;DHT22;70321;43.592;1.456;2023-07-31T08:45:53;21.26;63.60
65584;DHT22;70321;43.592;1.456;2023-07-31T08:48:23;21.32;63.64
65584;DHT22;70321;43.592;1.456;2023-07-31T08:50:51;21.39;64.33
65584;DHT22;70321;43.592;1.456;2023-07-31T08:53:19;21.48;63.59
65584;DHT22;70321;43.592;1.456;2023-07-31T08:55:47;21.53;62.83
65584;DHT22;70321;43.592;1.456;2023-07-31T08:58:15;21.60;62.43
65584;DHT22;70321;43.592;1.456;2023-07-31T09:00:42;21.70;62.46
65584;DHT22;70321;43.592;1.456;2023-07-31T09:03:15;21.75;62.03
65584;DHT22;70321;43.592;1.456;2023-07-31T09:05:44;21.79;60.13
65584;DHT22;70321;43.592;1.456;2023-07-31T09:08:18;21.85;61.19
65584;DHT22;70321;43.592;1.456;2023-07-31T09:10:46;21.90;60.94
65584;DHT22;70321;43.592;1.456;2023-07-31T09:13:14;21.94;60.41
65584;DHT22;70321;43.592;1.456;2023-07-31T09:15:43;22.04;60.79
65584;DHT22;70321;43.592;1.456;2023-07-31T09:18:10;22.12;61.61
65584;DHT22;70321;43.592;1.456;2023-07-31T09:20:37;22.17;61.01
65584;DHT22;70321;43.592;1.456;2023-07-31T09:23:12;22.23;60.36
65584;DHT22;70321;43.592;1.456;2023-07-31T09:25:41;22.30;61.27
65584;DHT22;70321;43.592;1.456;2023-07-31T09:28:10;22.34;59.96
65584;DHT22;70321;43.592;1.456;2023-07-31T09:33:12;22.45;60.91
65584;DHT22;70321;43.592;1.456;2023-07-31T09:35:40;22.54;61.11
65584;DHT22;70321;43.592;1.456;2023-07-31T09:38:12;22.61;60.29
65584;DHT22;70321;43.592;1.456;2023-07-31T09:40:43;22.63;59.70
65584;DHT22;70321;43.592;1.456;2023-07-31T09:43:12;22.65;60.39
65584;DHT22;70321;43.592;1.456;2023-07-31T09:45:42;22.72;59.51
65584;DHT22;70321;43.592;1.456;2023-07-31T09:48:15;22.83;60.42
65584;DHT22;70321;43.592;1.456;2023-07-31T09:50:47;22.94;61.72
65584;DHT22;70321;43.592;1.456;2023-07-31T09:53:15;23.02;60.52
65584;DHT22;70321;43.592;1.456;2023-07-31T09:55:43;23.11;59.74
65584;DHT22;70321;43.592;1.456;2023-07-31T09:58:12;23.09;58.83
65584;DHT22;70321;43.592;1.456;2023-07-31T10:00:39;23.11;59.42
65584;DHT22;70321;43.592;1.456;2023-07-31T10:03:08;23.14;59.09
65584;DHT22;70321;43.592;1.456;2023-07-31T10:05:50;23.18;59.42
65584;DHT22;70321;43.592;1.456;2023-07-31T10:08:20;23.32;59.20
65584;DHT22;70321;43.592;1.456;2023-07-31T10:10:48;23.41;58.80
65584;DHT22;70321;43.592;1.456;2023-07-31T10:13:15;23.38;57.85
65584;DHT22;70321;43.592;1.456;2023-07-31T10:15:43;23.42;58.28
65584;DHT22;70321;43.592;1.456;2023-07-31T10:18:11;23.43;57.97
65584;DHT22;70321;43.592;1.456;2023-07-31T10:20:38;23.46;57.76
65584;DHT22;70321;43.592;1.456;2023-07-31T10:23:06;23.48;58.80
65584;DHT22;70321;43.592;1.456;2023-07-31T10:25:32;23.46;57.52
65584;DHT22;70321;43.592;1.456;2023-07-31T10:28:00;23.53;58.31
65584;DHT22;70321;43.592;1.456;2023-07-31T10:30:29;23.59;58.32
65584;DHT22;70321;43.592;1.456;2023-07-31T10:32:56;23.67;58.64
65584;DHT22;70321;43.592;1.456;2023-07-31T10:35:24;23.77;57.50
65584;DHT22;70321;43.592;1.456;2023-07-31T10:37:52;23.84;58.41
65584;DHT22;70321;43.592;1.456;2023-07-31T10:40:23;23.89;57.85
65584;DHT22;70321;43.592;1.456;2023-07-31T10:42:57;23.92;56.52
65584;DHT22;70321;43.592;1.456;2023-07-31T10:45:35;23.96;56.52
65584;DHT22;70321;43.592;1.456;2023-07-31T10:48:13;24.04;57.29
65584;DHT22;70321;43.592;1.456;2023-07-31T10:50:48;24.14;56.04
65584;DHT22;70321;43.592;1.456;2023-07-31T10:53:29;24.23;57.20
65584;DHT22;70321;43.592;1.456;2023-07-31T10:56:01;24.28;56.25
65584;DHT22;70321;43.592;1.456;2023-07-31T10:58:28;24.28;55.67
65584;DHT22;70321;43.592;1.456;2023-07-31T11:00:56;24.33;56.00
65584;DHT22;70321;43.592;1.456;2023-07-31T11:03:43;24.40;55.87
65584;DHT22;70321;43.592;1.456;2023-07-31T11:06:11;24.47;55.83
65584;DHT22;70321;43.592;1.456;2023-07-31T11:08:48;24.51;55.35
65584;DHT22;70321;43.592;1.456;2023-07-31T11:11:18;24.57;56.53
65584;DHT22;70321;43.592;1.456;2023-07-31T11:13:46;24.63;55.35
65584;DHT22;70321;43.592;1.456;2023-07-31T11:16:16;24.69;55.20
65584;DHT22;70321;43.592;1.456;2023-07-31T11:18:44;24.74;54.88
65584;DHT22;70321;43.592;1.456;2023-07-31T11:21:13;24.81;54.29
65584;DHT22;70321;43.592;1.456;2023-07-31T11:23:40;24.82;54.60
65584;DHT22;70321;43.592;1.456;2023-07-31T11:26:07;24.87;54.89
65584;DHT22;70321;43.592;1.456;2023-07-31T11:28:34;24.87;53.98
65584;DHT22;70321;43.592;1.456;2023-07-31T11:31:02;24.92;53.57
65584;DHT22;70321;43.592;1.456;2023-07-31T11:33:29;24.98;53.96
65584;DHT22;70321;43.592;1.456;2023-07-31T11:35:56;25.07;54.02
65584;DHT22;70321;43.592;1.456;2023-07-31T11:38:32;25.16;53.66
65584;DHT22;70321;43.592;1.456;2023-07-31T11:41:01;25.21;52.57
65584;DHT22;70321;43.592;1.456;2023-07-31T11:43:31;25.21;54.46
65584;DHT22;70321;43.592;1.456;2023-07-31T11:45:59;25.22;52.41
65584;DHT22;70321;43.592;1.456;2023-07-31T11:48:32;25.28;53.98
65584;DHT22;70321;43.592;1.456;2023-07-31T11:51:02;25.32;53.55
65584;DHT22;70321;43.592;1.456;2023-07-31T11:53:35;25.42;52.55
65584;DHT22;70321;43.592;1.456;2023-07-31T11:56:03;25.53;53.06
65584;DHT22;70321;43.592;1.456;2023-07-31T11:58:31;25.63;54.52
65584;DHT22;70321;43.592;1.456;2023-07-31T12:01:00;25.73;54.49
65584;DHT22;70321;43.592;1.456;2023-07-31T12:03:27;25.86;51.60
65584;DHT22;70321;43.592;1.456;2023-07-31T12:05:54;25.94;50.91
65584;DHT22;70321;43.592;1.456;2023-07-31T12:08:23;25.96;51.08
65584;DHT22;70321;43.592;1.456;2023-07-31T12:10:51;25.97;49.94
65584;DHT22;70321;43.592;1.456;2023-07-31T12:13:23;25.97;50.10
65584;DHT22;70321;43.592;1.456;2023-07-31T12:15:54;25.96;50.60
65584;DHT22;70321;43.592;1.456;2023-07-31T12:18:23;25.96;49.92
65584;DHT22;70321;43.592;1.456;2023-07-31T12:20:59;26.00;49.87
65584;DHT22;70321;43.592;1.456;2023-07-31T12:23:30;26.03;49.92
65584;DHT22;70321;43.592;1.456;2023-07-31T12:28:28;26.13;50.90
65584;DHT22;70321;43.592;1.456;2023-07-31T12:30:59;26.17;52.32
65584;DHT22;70321;43.592;1.456;2023-07-31T12:33:33;26.27;51.10
65584;DHT22;70321;43.592;1.456;2023-07-31T12:36:02;26.33;48.96
65584;DHT22;70321;43.592;1.456;2023-07-31T12:38:30;26.34;50.60
65584;DHT22;70321;43.592;1.456;2023-07-31T12:41:00;26.38;48.73
65584;DHT22;70321;43.592;1.456;2023-07-31T12:43:26;26.41;47.99
65584;DHT22;70321;43.592;1.456;2023-07-31T12:45:56;26.44;49.07
65584;DHT22;70321;43.592;1.456;2023-07-31T12:48:23;26.48;47.77
65584;DHT22;70321;43.592;1.456;2023-07-31T12:50:50;26.48;47.69
65584;DHT22;70321;43.592;1.456;2023-07-31T12:53:16;26.54;48.65
65584;DHT22;70321;43.592;1.456;2023-07-31T12:55:43;26.60;49.53
65584;DHT22;70321;43.592;1.456;2023-07-31T12:58:10;26.61;48.43
65584;DHT22;70321;43.592;1.456;2023-07-31T13:00:37;26.67;50.20
65584;DHT22;70321;43.592;1.456;2023-07-31T13:03:04;26.74;51.49
65584;DHT22;70321;43.592;1.456;2023-07-31T13:05:31;26.81;50.67
65584;DHT22;70321;43.592;1.456;2023-07-31T13:07:58;26.91;48.92
65584;DHT22;70321;43.592;1.456;2023-07-31T13:10:25;26.88;46.79
65584;DHT22;70321;43.592;1.456;2023-07-31T13:12:53;26.87;46.53
65584;DHT22;70321;43.592;1.456;2023-07-31T13:15:20;26.91;46.82
65584;DHT22;70321;43.592;1.456;2023-07-31T13:17:46;26.96;46.74
65584;DHT22;70321;43.592;1.456;2023-07-31T13:20:13;27.02;47.28
65584;DHT22;70321;43.592;1.456;2023-07-31T13:22:40;27.01;46.14
65584;DHT22;70321;43.592;1.456;2023-07-31T13:25:10;27.05;47.37
65584;DHT22;70321;43.592;1.456;2023-07-31T13:27:37;27.06;45.44
65584;DHT22;70321;43.592;1.456;2023-07-31T13:30:04;27.09;45.01
65584;DHT22;70321;43.592;1.456;2023-07-31T13:32:31;27.12;45.07
65584;DHT22;70321;43.592;1.456;2023-07-31T13:34:58;27.16;46.48
65584;DHT22;70321;43.592;1.456;2023-07-31T13:37:25;27.18;47.93
65584;DHT22;70321;43.592;1.456;2023-07-31T13:39:51;27.25;47.29
65584;DHT22;70321;43.592;1.456;2023-07-31T13:42:18;27.29;45.55
65584;DHT22;70321;43.592;1.456;2023-07-31T13:44:45;27.31;44.57
65584;DHT22;70321;43.592;1.456;2023-07-31T13:47:11;27.34;44.47
65584;DHT22;70321;43.592;1.456;2023-07-31T13:49:38;27.35;43.87
65584;DHT22;70321;43.592;1.456;2023-07-31T13:52:05;27.39;44.92
65584;DHT22;70321;43.592;1.456;2023-07-31T13:54:32;27.42;45.03
65584;DHT22;70321;43.592;1.456;2023-07-31T13:56:59;27.43;43.28
65584;DHT22;70321;43.592;1.456;2023-07-31T13:59:26;27.47;43.56
65584;DHT22;70321;43.592;1.456;2023-07-31T14:01:53;27.53;43.99
65584;DHT22;70321;43.592;1.456;2023-07-31T14:04:19;27.59;44.27
65584;DHT22;70321;43.592;1.456;2023-07-31T14:06:46;27.65;44.39
65584;DHT22;70321;43.592;1.456;2023-07-31T14:09:14;27.67;44.17
65584;DHT22;70321;43.592;1.456;2023-07-31T14:11:41;27.66;44.99
65584;DHT22;70321;43.592;1.456;2023-07-31T14:14:09;27.70;44.75
65584;DHT22;70321;43.592;1.456;2023-07-31T14:16:36;27.74;43.80
65584;DHT22;70321;43.592;1.456;2023-07-31T14:19:03;27.80;43.67
65584;DHT22;70321;43.592;1.456;2023-07-31T14:21:30;27.86;45.08
65584;DHT22;70321;43.592;1.456;2023-07-31T14:23:57;27.86;42.82
65584;DHT22;70321;43.592;1.456;2023-07-31T14:26:24;27.86;43.96
65584;DHT22;70321;43.592;1.456;2023-07-31T14:28:50;27.92;44.48
65584;DHT22;70321;43.592;1.456;2023-07-31T14:31:17;27.86;42.71
65584;DHT22;70321;43.592;1.456;2023-07-31T14:33:44;27.87;42.77
65584;DHT22;70321;43.592;1.456;2023-07-31T14:36:11;27.94;42.99
65584;DHT22;70321;43.592;1.456;2023-07-31T14:38:37;28.01;42.99
65584;DHT22;70321;43.592;1.456;2023-07-31T14:41:04;28.06;43.25
65584;DHT22;70321;43.592;1.456;2023-07-31T14:43:31;28.06;41.88
65584;DHT22;70321;43.592;1.456;2023-07-31T14:45:57;28.07;42.20
65584;DHT22;70321;43.592;1.456;2023-07-31T14:48:26;28.07;43.78
65584;DHT22;70321;43.592;1.456;2023-07-31T14:50:53;28.06;42.76
65584;DHT22;70321;43.592;1.456;2023-07-31T14:53:21;28.06;42.37
65584;DHT22;70321;43.592;1.456;2023-07-31T14:55:48;28.07;42.84
65584;DHT22;70321;43.592;1.456;2023-07-31T14:58:14;28.11;42.68
65584;DHT22;70321;43.592;1.456;2023-07-31T15:00:44;28.09;42.23
65584;DHT22;70321;43.592;1.456;2023-07-31T15:03:10;28.09;42.82
65584;DHT22;70321;43.592;1.456;2023-07-31T15:05:37;28.11;42.70
65584;DHT22;70321;43.592;1.456;2023-07-31T15:08:04;28.11;42.88
65584;DHT22;70321;43.592;1.456;2023-07-31T15:10:31;28.13;43.14
65584;DHT22;70321;43.592;1.456;2023-07-31T15:12:58;28.16;41.81
65584;DHT22;70321;43.592;1.456;2023-07-31T15:15:25;28.11;42.31
65584;DHT22;70321;43.592;1.456;2023-07-31T15:17:51;28.14;41.58
65584;DHT22;70321;43.592;1.456;2023-07-31T15:20:18;28.14;44.01
65584;DHT22;70321;43.592;1.456;2023-07-31T15:22:45;28.10;42.44
65584;DHT22;70321;43.592;1.456;2023-07-31T15:25:12;28.16;41.95
65584;DHT22;70321;43.592;1.456;2023-07-31T15:27:38;28.17;41.49
65584;DHT22;70321;43.592;1.456;2023-07-31T15:30:05;28.21;41.47
65584;DHT22;70321;43.592;1.456;2023-07-31T15:32:32;28.22;42.86
65584;DHT22;70321;43.592;1.456;2023-07-31T15:34:59;28.27;44.20
65584;DHT22;70321;43.592;1.456;2023-07-31T15:37:26;28.25;42.72
65584;DHT22;70321;43.592;1.456;2023-07-31T15:39:52;28.27;41.82
65584;DHT22;70321;43.592;1.456;2023-07-31T15:42:19;28.22;40.55
65584;DHT22;70321;43.592;1.456;2023-07-31T15:44:46;28.24;41.26
65584;DHT22;70321;43.592;1.456;2023-07-31T15:47:12;28.22;40.70